Terminal Aerodrome Forecast
Issued by NWS

Home | Current Version | Previous Version | Graphics & Text | Print | Product List | Glossary On
Versions: 1 2 3 4 5 6 7 8 9 10 11 12 13 14
498
FTUS43 KICT 221554 AAA
TAFSLN
TAF AMD
KSLN 221554Z 2216/2312 22007KT P6SM VCSH SCT035 OVC070
      TEMPO 2216/2220 5SM -SHRA BKN030
     FM222100 22009KT P6SM SCT070
     FM230100 19008KT P6SM VCTS SCT030CB OVC070
     FM230500 32012KT P6SM VCSH BKN050=

USA.gov is the U.S. government's official web portal to all federal, state and local government web resources and services.